Time;durP1;ratioP1;P1;durP2;ratioP2;P2;SDS_P1;SDS_P2;PMS_P1;PMS_P2;Temp;Humidity;BMP_temperature;BMP_pressure;BME280_temperature;BME280_humidity;BME280_pressure;Samples;Min_cycle;Max_cycle;Signal;HPM_P1;HPM_P2
2023/08/27 00:01:12;;;;;;;1.58;1.10;;;;;;;19.67;61.81;99259.75;5021493;28;20099;-77
2023/08/27 00:03:39;;;;;;;1.25;0.90;;;;;;;19.63;61.62;99259.22;5048534;28;20410;-80
2023/08/27 00:06:06;;;;;;;2.92;0.93;;;;;;;19.59;61.79;99257.88;5037951;28;20040;-77
2023/08/27 00:08:32;;;;;;;0.88;0.82;;;;;;;19.56;61.97;99247.53;5062802;28;20041;-76
2023/08/27 00:11:00;;;;;;;1.88;1.00;;;;;;;19.51;61.49;99249.84;5033467;28;20547;-78
2023/08/27 00:13:27;;;;;;;1.00;0.90;;;;;;;19.47;61.87;99243.16;5050985;28;20041;-80
2023/08/27 00:15:54;;;;;;;1.00;0.88;;;;;;;19.44;62.21;99238.13;5051430;28;20162;-78
2023/08/27 00:18:20;;;;;;;2.63;1.00;;;;;;;19.40;62.00;99245.63;5049505;28;20041;-77
2023/08/27 00:20:48;;;;;;;1.23;1.00;;;;;;;19.37;62.19;99249.41;5050309;28;20040;-78
2023/08/27 00:23:16;;;;;;;1.45;0.80;;;;;;;19.33;62.25;99266.72;5050750;28;20044;-79
2023/08/27 00:25:43;;;;;;;1.48;0.88;;;;;;;19.30;62.41;99268.88;5032998;28;20505;-77
2023/08/27 00:28:13;;;;;;;0.90;0.63;;;;;;;19.26;61.93;99271.03;5050811;28;20045;-78
2023/08/27 00:30:41;;;;;;;1.85;1.00;;;;;;;19.24;62.70;99267.66;5030382;28;20068;-78
2023/08/27 00:33:07;;;;;;;2.05;1.13;;;;;;;19.23;62.59;99263.34;5051112;28;20052;-77
2023/08/27 00:35:36;;;;;;;3.55;0.90;;;;;;;19.20;62.63;99264.47;5043412;28;20052;-77
2023/08/27 00:38:05;;;;;;;3.33;0.98;;;;;;;19.20;62.47;99268.97;5050439;28;20048;-77
2023/08/27 00:40:32;;;;;;;0.60;0.60;;;;;;;19.20;62.62;99263.63;5051292;28;20045;-77
2023/08/27 00:42:59;;;;;;;1.60;0.90;;;;;;;19.20;62.21;99252.97;5033674;28;20141;-80
2023/08/27 00:45:26;;;;;;;1.48;0.90;;;;;;;19.19;63.04;99252.16;5051118;28;20048;-77
2023/08/27 00:47:54;;;;;;;1.13;0.80;;;;;;;19.21;62.76;99258.16;5033924;28;20087;-78
2023/08/27 00:50:21;;;;;;;1.20;1.00;;;;;;;19.21;63.06;99254.66;5060916;28;20045;-78
2023/08/27 00:52:49;;;;;;;1.38;0.95;;;;;;;19.22;62.87;99251.81;5064556;28;20078;-78
2023/08/27 00:55:16;;;;;;;1.65;0.90;;;;;;;19.24;63.66;99254.31;5054876;28;20044;-80
2023/08/27 00:57:43;;;;;;;0.95;0.95;;;;;;;19.27;63.48;99248.69;5044895;28;20049;-77
2023/08/27 01:00:10;;;;;;;1.52;1.15;;;;;;;19.30;63.47;99256.38;5042390;28;20041;-77
2023/08/27 01:02:38;;;;;;;1.23;1.00;;;;;;;19.32;63.66;99246.38;5036775;28;20107;-78
2023/08/27 01:05:05;;;;;;;3.33;1.10;;;;;;;19.34;63.05;99233.72;5054436;28;20138;-77
2023/08/27 01:07:36;;;;;;;0.90;0.80;;;;;;;19.34;62.42;99223.06;5062955;28;20500;-78
2023/08/27 01:10:28;;;;;;;2.95;0.90;;;;;;;19.36;62.17;99220.22;5049367;28;20132;-78
2023/08/27 01:13:02;;;;;;;2.15;0.90;;;;;;;19.38;62.47;99207.56;5049320;28;20624;-77
2023/08/27 01:15:30;;;;;;;1.80;0.88;;;;;;;19.41;63.11;99207.25;5049462;28;20079;-77
2023/08/27 01:17:59;;;;;;;1.17;0.90;;;;;;;19.40;62.30;99209.06;5054121;28;20124;-78
2023/08/27 01:20:27;;;;;;;2.80;1.00;;;;;;;19.43;63.04;99217.75;5035046;28;20131;-77
2023/08/27 01:22:54;;;;;;;3.13;1.33;;;;;;;19.41;62.45;99201.91;5054429;28;20052;-77
2023/08/27 01:25:24;;;;;;;1.27;1.00;;;;;;;19.39;62.12;99194.06;5054262;28;20049;-77
2023/08/27 01:28:14;;;;;;;2.33;0.82;;;;;;;19.34;61.85;99180.34;5061524;28;20056;-76
2023/08/27 01:30:54;;;;;;;2.80;1.08;;;;;;;19.34;61.63;99175.03;5033107;28;20130;-77
2023/08/27 01:33:25;;;;;;;1.95;1.27;;;;;;;19.35;62.04;99183.84;5054219;28;20052;-76
2023/08/27 01:35:53;;;;;;;1.85;1.05;;;;;;;19.31;62.40;99170.00;5053789;28;20053;-77
2023/08/27 01:38:20;;;;;;;2.20;1.00;;;;;;;19.29;62.41;99165.81;5053320;28;20045;-78
2023/08/27 01:40:47;;;;;;;3.58;1.38;;;;;;;19.25;62.25;99160.78;5045572;28;20049;-79
2023/08/27 01:43:14;;;;;;;1.48;0.95;;;;;;;19.22;62.55;99154.94;5062496;28;20106;-79
2023/08/27 01:45:40;;;;;;;2.10;1.00;;;;;;;19.18;62.73;99153.59;5053892;28;20104;-77
2023/08/27 01:48:07;;;;;;;2.15;1.30;;;;;;;19.15;62.57;99160.06;5053693;28;20044;-77
2023/08/27 01:50:33;;;;;;;3.35;1.48;;;;;;;19.11;62.55;99153.38;5053203;28;20057;-78
2023/08/27 01:53:00;;;;;;;2.08;1.45;;;;;;;19.08;62.78;99161.69;5035823;28;20061;-79
2023/08/27 01:55:27;;;;;;;2.08;1.30;;;;;;;19.05;63.44;99178.84;5053357;28;20444;-77
2023/08/27 01:57:53;;;;;;;2.78;1.30;;;;;;;19.04;63.10;99190.50;5043977;28;20059;-78
2023/08/27 02:00:20;;;;;;;2.47;1.40;;;;;;;19.03;63.42;99172.81;5045429;28;20045;-78
2023/08/27 02:02:47;;;;;;;2.10;1.20;;;;;;;19.04;63.40;99181.63;5051109;28;20077;-76
2023/08/27 02:05:14;;;;;;;2.72;1.42;;;;;;;19.04;63.52;99187.81;5049669;28;20141;-79
2023/08/27 02:07:41;;;;;;;1.95;1.42;;;;;;;19.04;63.32;99195.81;5049485;28;20485;-79
2023/08/27 02:10:08;;;;;;;3.28;1.10;;;;;;;19.05;63.94;99200.19;5051321;28;20390;-78
2023/08/27 02:12:35;;;;;;;1.40;1.30;;;;;;;19.07;63.83;99192.03;5030907;28;20091;-78
2023/08/27 02:15:08;;;;;;;2.08;1.23;;;;;;;19.10;63.71;99189.06;5053139;28;20477;-77
2023/08/27 02:17:35;;;;;;;;;;;;;;;19.12;62.79;99192.41;5053516;28;20045;-78
2023/08/27 02:20:06;;;;;;;1.92;1.27;;;;;;;19.19;63.75;99187.25;5043440;28;20020;-78
2023/08/27 02:22:33;;;;;;;2.50;1.40;;;;;;;19.20;63.60;99191.59;5053105;28;20049;-78
2023/08/27 02:25:00;;;;;;;5.40;1.52;;;;;;;19.20;63.48;99183.59;5053109;28;20497;-77
2023/08/27 02:27:27;;;;;;;1.33;1.10;;;;;;;19.21;63.75;99177.28;5053099;28;20521;-77
2023/08/27 02:29:53;;;;;;;1.75;1.42;;;;;;;19.21;63.44;99174.63;5046227;28;20045;-76
2023/08/27 02:32:20;;;;;;;2.65;1.20;;;;;;;19.20;63.63;99167.59;5053052;28;20127;-79
2023/08/27 02:34:47;;;;;;;1.30;1.20;;;;;;;19.19;63.29;99182.78;5052757;28;20099;-77
2023/08/27 02:37:13;;;;;;;1.88;1.52;;;;;;;19.19;63.67;99173.91;5044964;28;20533;-78
2023/08/27 02:39:39;;;;;;;2.72;1.48;;;;;;;19.18;63.41;99169.59;5048748;28;20069;-77
2023/08/27 02:42:06;;;;;;;2.35;1.50;;;;;;;19.17;63.62;99174.06;5048542;28;20143;-77
2023/08/27 02:44:33;;;;;;;2.67;1.50;;;;;;;19.17;63.76;99170.59;5057487;28;20405;-79
2023/08/27 02:46:59;;;;;;;2.65;1.70;;;;;;;19.16;63.38;99160.91;5105475;22;20527;-86
2023/08/27 02:49:26;;;;;;;6.28;1.70;;;;;;;19.14;63.47;99156.56;5046209;28;20414;-86
2023/08/27 02:51:53;;;;;;;2.70;1.80;;;;;;;19.14;63.38;99145.06;5045612;28;20498;-87
2023/08/27 02:54:20;;;;;;;2.60;1.70;;;;;;;19.13;63.69;99146.88;5046363;28;20540;-86
2023/08/27 02:56:46;;;;;;;2.75;1.90;;;;;;;19.12;63.60;99147.91;5045346;28;20056;-86
2023/08/27 02:59:13;;;;;;;3.53;1.63;;;;;;;19.11;63.40;99140.03;5041147;28;20049;-86
2023/08/27 03:01:39;;;;;;;2.72;1.70;;;;;;;19.09;63.31;99132.19;5044609;28;20095;-86
2023/08/27 03:04:06;;;;;;;3.13;1.98;;;;;;;19.08;63.85;99135.88;5050702;28;20139;-86
2023/08/27 03:06:32;;;;;;;3.08;1.90;;;;;;;19.06;63.89;99132.50;5050990;28;20065;-86
2023/08/27 03:08:59;;;;;;;3.38;1.98;;;;;;;19.03;63.71;99124.81;5051843;28;20052;-86
2023/08/27 03:11:25;;;;;;;3.53;2.00;;;;;;;19.01;63.46;99137.44;5047815;28;20510;-86
2023/08/27 03:13:52;;;;;;;3.47;1.80;;;;;;;18.98;63.44;99133.28;5050646;28;20407;-86
2023/08/27 03:16:18;;;;;;;3.97;2.33;;;;;;;18.94;63.44;99131.91;5051728;28;20049;-86
2023/08/27 03:18:46;;;;;;;5.13;2.17;;;;;;;18.91;63.30;99136.72;5052070;28;20140;-86
2023/08/27 03:21:12;;;;;;;3.28;2.60;;;;;;;18.86;63.72;99130.03;5043825;28;20055;-86
2023/08/27 03:23:38;;;;;;;4.90;2.88;;;;;;;18.84;63.80;99136.53;5049359;28;20055;-85
2023/08/27 03:26:05;;;;;;;6.07;2.92;;;;;;;18.81;63.77;99120.84;5050400;28;20044;-86
2023/08/27 03:28:31;;;;;;;3.33;2.78;;;;;;;18.77;63.86;99120.31;5050331;28;20414;-86
2023/08/27 03:31:01;;;;;;;5.32;2.75;;;;;;;18.73;63.65;99118.97;5043662;28;20081;-86
2023/08/27 03:33:31;;;;;;;4.05;2.90;;;;;;;18.71;63.99;99113.78;5050199;28;20052;-86
2023/08/27 03:35:58;;;;;;;4.15;2.65;;;;;;;18.69;63.83;99114.94;5050235;28;20068;-86
2023/08/27 03:38:25;;;;;;;3.72;2.50;;;;;;;18.66;63.97;99113.41;5045818;28;20056;-85
2023/08/27 03:40:53;;;;;;;5.32;3.38;;;;;;;18.62;63.93;99106.72;5043480;28;20527;-85
2023/08/27 03:43:19;;;;;;;4.68;3.13;;;;;;;18.59;64.31;99113.22;5051601;28;20072;-86
2023/08/27 03:45:45;;;;;;;4.95;3.10;;;;;;;18.56;64.22;99112.66;5050051;28;20400;-86
2023/08/27 03:48:12;;;;;;;4.30;3.15;;;;;;;18.52;64.09;99111.28;5051391;28;20049;-86
2023/08/27 03:50:38;;;;;;;6.57;3.88;;;;;;;18.49;64.44;99112.44;5044597;28;20048;-86
2023/08/27 03:53:05;;;;;;;6.55;4.18;;;;;;;18.45;64.66;99111.94;5041257;28;20045;-85
2023/08/27 03:55:41;;;;;;;4.32;3.35;;;;;;;18.39;64.21;99109.03;5051036;28;20483;-86
2023/08/27 03:58:09;;;;;;;4.25;3.78;;;;;;;18.41;64.57;99115.03;5050842;28;20483;-86
2023/08/27 04:00:36;;;;;;;4.43;3.88;;;;;;;18.38;65.06;99108.19;5047987;28;20057;-86
2023/08/27 04:03:03;;;;;;;4.80;3.75;;;;;;;18.35;64.79;99112.00;5041919;28;20442;-86
2023/08/27 04:05:30;;;;;;;3.78;3.38;;;;;;;18.34;64.83;99107.69;5049990;28;20048;-86
2023/08/27 04:07:57;;;;;;;4.80;3.88;;;;;;;18.32;64.99;99104.31;5050864;28;20087;-86
2023/08/27 04:10:23;;;;;;;5.47;3.83;;;;;;;18.30;64.98;99108.97;5050858;28;20128;-86
2023/08/27 04:12:50;;;;;;;4.22;3.55;;;;;;;18.28;65.08;99110.94;5048358;28;20053;-86
2023/08/27 04:15:16;;;;;;;3.67;3.38;;;;;;;18.25;64.72;99121.94;5051054;28;20048;-86
2023/08/27 04:17:43;;;;;;;7.25;3.75;;;;;;;18.23;65.26;99121.22;5049536;28;20073;-86
2023/08/27 04:20:10;;;;;;;5.47;3.88;;;;;;;18.21;64.92;99121.38;5050472;28;20049;-86
2023/08/27 04:22:36;;;;;;;7.35;4.28;;;;;;;18.21;65.06;99117.91;5042025;28;20057;-86
2023/08/27 04:25:03;;;;;;;6.13;4.00;;;;;;;18.20;65.20;99116.19;5050444;28;20055;-86
2023/08/27 04:27:29;;;;;;;4.88;3.95;;;;;;;18.18;65.09;99127.03;5050390;28;20049;-86
2023/08/27 04:29:56;;;;;;;4.22;3.83;;;;;;;18.17;65.48;99125.34;5050550;28;20415;-86
2023/08/27 04:32:22;;;;;;;5.35;4.15;;;;;;;18.16;65.35;99122.84;5027328;28;20045;-86
2023/08/27 04:34:48;;;;;;;8.73;4.28;;;;;;;18.15;65.70;99129.13;5045793;28;20053;-86
2023/08/27 04:37:15;;;;;;;4.85;4.25;;;;;;;18.15;65.87;99131.81;5050223;28;20056;-86
2023/08/27 04:39:41;;;;;;;5.43;4.60;;;;;;;18.14;65.80;99125.66;5048879;28;20052;-86
2023/08/27 04:42:08;;;;;;;7.28;4.38;;;;;;;18.14;65.92;99132.81;5047705;28;20045;-86
2023/08/27 04:44:34;;;;;;;8.15;5.00;;;;;;;18.14;65.87;99123.00;5049621;28;20088;-86
2023/08/27 04:47:00;;;;;;;8.88;4.57;;;;;;;18.15;66.11;99131.81;5048937;28;20061;-86
2023/08/27 04:49:27;;;;;;;7.07;5.28;;;;;;;18.16;66.04;99136.16;5050187;28;20048;-86
2023/08/27 04:51:53;;;;;;;5.82;4.93;;;;;;;18.16;65.89;99138.81;5050207;28;20164;-85
2023/08/27 04:54:20;;;;;;;7.80;5.10;;;;;;;18.16;66.21;99131.66;5042321;28;20048;-86
2023/08/27 04:56:46;;;;;;;10.43;5.63;;;;;;;18.17;66.01;99130.66;5049976;28;20048;-86
2023/08/27 04:59:13;;;;;;;6.38;4.90;;;;;;;18.17;66.06;99117.34;5050225;28;20063;-86
2023/08/27 05:01:39;;;;;;;6.30;4.72;;;;;;;18.17;66.29;99125.34;5050072;28;20049;-86
2023/08/27 05:04:06;;;;;;;5.68;4.72;;;;;;;18.17;66.11;99129.84;5044354;28;20102;-86
2023/08/27 05:06:32;;;;;;;6.30;5.20;;;;;;;18.16;65.72;99122.84;5050047;28;20045;-86
2023/08/27 05:08:58;;;;;;;9.93;4.72;;;;;;;18.16;65.87;99117.53;5050056;28;20136;-86
2023/08/27 05:11:25;;;;;;;5.20;4.70;;;;;;;18.15;66.03;99110.50;5050441;28;20084;-86
2023/08/27 05:13:52;;;;;;;6.18;5.05;;;;;;;18.13;65.82;99115.16;5048857;28;20136;-86
2023/08/27 05:16:18;;;;;;;6.22;5.60;;;;;;;18.12;66.24;99119.63;5050020;28;20056;-86
2023/08/27 05:18:44;;;;;;;7.57;5.22;;;;;;;18.10;66.45;99109.13;5049786;28;20487;-86
2023/08/27 05:21:11;;;;;;;5.07;4.57;;;;;;;18.10;66.17;99113.63;5049696;28;20049;-86
2023/08/27 05:23:37;;;;;;;5.63;4.97;;;;;;;18.09;66.38;99118.13;5045989;28;20264;-86
2023/08/27 05:26:05;;;;;;;6.45;5.32;;;;;;;18.10;66.36;99114.44;5036554;28;20053;-86
2023/08/27 05:28:31;;;;;;;7.05;5.10;;;;;;;18.09;66.32;99104.78;5042086;28;20055;-86
2023/08/27 05:30:58;;;;;;;7.78;5.05;;;;;;;18.10;66.36;99110.97;5049960;28;20495;-86
2023/08/27 05:33:24;;;;;;;5.80;5.03;;;;;;;18.10;66.39;99114.44;5042109;28;20045;-86
2023/08/27 05:35:51;;;;;;;7.35;4.97;;;;;;;18.09;66.38;99102.13;5046987;28;20052;-87
2023/08/27 05:38:18;;;;;;;6.53;4.95;;;;;;;18.11;66.58;99109.97;5045125;22;20512;-78
2023/08/27 05:40:44;;;;;;;10.15;5.10;;;;;;;18.13;66.91;99101.84;5033754;28;20038;-77
2023/08/27 05:43:11;;;;;;;6.47;5.20;;;;;;;18.14;66.96;99104.34;5034432;28;20045;-77
2023/08/27 05:45:37;;;;;;;10.70;5.50;;;;;;;18.16;66.54;99090.88;5033846;28;20123;-78
2023/08/27 05:48:04;;;;;;;5.35;4.75;;;;;;;18.19;66.86;99095.88;5034155;28;20045;-78
2023/08/27 05:50:34;;;;;;;6.10;5.10;;;;;;;18.21;66.97;99096.59;5025876;28;20112;-78
2023/08/27 05:53:02;;;;;;;6.75;5.25;;;;;;;18.23;66.97;99098.09;5033918;28;20050;-77
2023/08/27 05:55:29;;;;;;;6.90;5.57;;;;;;;18.27;66.90;99093.28;5026843;28;20038;-77
2023/08/27 05:57:55;;;;;;;9.23;4.88;;;;;;;18.29;67.09;99101.97;5033752;28;20049;-76
2023/08/27 06:00:23;;;;;;;6.63;4.72;;;;;;;18.33;66.84;99095.34;5033935;28;20045;-78
2023/08/27 06:02:49;;;;;;;5.95;4.38;;;;;;;18.35;66.79;99096.03;5033744;28;20053;-77
2023/08/27 06:05:16;;;;;;;6.38;4.65;;;;;;;18.38;66.98;99096.72;5029050;28;20125;-78
2023/08/27 06:07:43;;;;;;;4.97;4.15;;;;;;;18.39;66.91;99085.88;5033580;28;20494;-78
2023/08/27 06:10:12;;;;;;;8.60;4.47;;;;;;;18.41;66.92;99083.91;5032867;28;20046;-78
2023/08/27 06:12:38;;;;;;;5.53;5.00;;;;;;;18.46;67.07;99086.09;5026281;28;20038;-78
2023/08/27 06:15:07;;;;;;;5.78;4.32;;;;;;;18.50;66.91;99079.47;5031886;28;20065;-77
2023/08/27 06:17:33;;;;;;;5.10;4.60;;;;;;;18.54;67.04;99082.69;5029269;28;20125;-79
2023/08/27 06:20:00;;;;;;;6.85;4.65;;;;;;;18.57;66.80;99088.53;5019747;28;20107;-78
2023/08/27 06:22:27;;;;;;;4.57;3.67;;;;;;;18.61;66.81;99092.56;5041672;28;20103;-77
2023/08/27 06:24:53;;;;;;;6.47;4.40;;;;;;;18.65;66.95;99085.06;5033552;28;20041;-77
2023/08/27 06:27:20;;;;;;;6.55;3.95;;;;;;;18.69;67.02;99073.09;5014666;28;20632;-79
2023/08/27 06:29:46;;;;;;;6.13;4.00;;;;;;;18.72;67.29;99071.94;5031754;28;20045;-77
2023/08/27 06:32:14;;;;;;;6.40;4.60;;;;;;;18.79;67.25;99102.31;5033161;28;20061;-76
2023/08/27 06:34:41;;;;;;;7.35;4.15;;;;;;;18.85;67.28;99096.38;5037565;28;20485;-77
2023/08/27 06:37:08;;;;;;;5.78;4.70;;;;;;;18.91;67.06;99104.72;5040233;28;20052;-77
2023/08/27 06:39:34;;;;;;;6.53;4.05;;;;;;;18.94;66.89;99105.25;5032916;28;20069;-76
2023/08/27 06:42:01;;;;;;;5.88;4.13;;;;;;;18.98;67.05;99119.09;5040201;28;20049;-79
2023/08/27 06:44:28;;;;;;;6.93;4.10;;;;;;;19.01;66.49;99118.78;5033884;28;20095;-76
2023/08/27 06:46:55;;;;;;;6.45;3.58;;;;;;;19.02;66.18;99123.97;5030663;28;20437;-79
2023/08/27 06:49:22;;;;;;;4.97;4.40;;;;;;;19.03;66.17;99130.16;5030807;28;20107;-77
2023/08/27 06:51:48;;;;;;;5.53;4.43;;;;;;;19.06;66.07;99126.34;5031447;28;20088;-77
2023/08/27 06:54:15;;;;;;;6.32;5.00;;;;;;;19.04;66.24;99130.97;5024795;28;20041;-76
2023/08/27 06:56:41;;;;;;;7.55;4.53;;;;;;;19.06;66.45;99135.16;5029137;28;20814;-77
2023/08/27 06:59:10;;;;;;;5.05;4.35;;;;;;;19.06;66.48;99124.50;5013293;28;20048;-79
2023/08/27 07:01:39;;;;;;;7.38;4.70;;;;;;;19.10;66.21;99141.03;5006515;28;20144;-77
2023/08/27 07:04:06;;;;;;;5.85;4.53;;;;;;;19.12;66.26;99139.03;5014686;28;20107;-76
2023/08/27 07:06:33;;;;;;;7.00;4.65;;;;;;;19.14;66.02;99143.22;5040610;28;20494;-78
2023/08/27 07:09:05;;;;;;;4.97;4.47;;;;;;;19.16;65.81;99147.56;5039104;28;20045;-78
2023/08/27 07:11:33;;;;;;;6.50;5.18;;;;;;;19.14;65.50;99145.06;5033724;28;20033;-77
2023/08/27 07:14:00;;;;;;;5.47;4.28;;;;;;;19.13;65.41;99156.72;5037358;28;20096;-77
2023/08/27 07:16:27;;;;;;;6.18;4.68;;;;;;;19.09;65.43;99161.53;5032510;28;20095;-76
2023/08/27 07:18:54;;;;;;;7.05;4.88;;;;;;;19.04;65.05;99170.97;5026799;28;20054;-79
2023/08/27 07:21:21;;;;;;;5.15;4.65;;;;;;;18.99;65.43;99174.13;5022577;28;20095;-79
2023/08/27 07:23:48;;;;;;;5.70;4.45;;;;;;;18.92;65.10;99176.59;5036473;28;20437;-79
2023/08/27 07:26:17;;;;;;;6.80;4.35;;;;;;;18.87;65.69;99168.19;5029945;28;20053;-77
2023/08/27 07:28:50;;;;;;;5.25;4.35;;;;;;;18.81;65.71;99161.69;5032424;28;20128;-78
2023/08/27 07:31:18;;;;;;;5.60;4.38;;;;;;;18.79;66.22;99158.31;5032060;28;20080;-77
2023/08/27 07:33:45;;;;;;;4.93;4.38;;;;;;;18.78;66.08;99142.47;5039164;28;20072;-77
2023/08/27 07:36:13;;;;;;;4.90;4.30;;;;;;;18.77;66.29;99146.13;5021924;28;20041;-79
2023/08/27 07:38:41;;;;;;;4.65;4.00;;;;;;;18.77;66.39;99144.31;5028618;28;20046;-80
2023/08/27 07:41:11;;;;;;;4.15;3.75;;;;;;;18.79;66.51;99141.47;5006344;28;20179;-77
2023/08/27 07:43:38;;;;;;;5.13;4.10;;;;;;;18.83;66.92;99145.50;5005563;28;20111;-78
2023/08/27 07:46:05;;;;;;;3.97;3.58;;;;;;;18.86;66.94;99131.84;5030895;28;20049;-80
2023/08/27 07:48:32;;;;;;;4.63;3.97;;;;;;;18.92;67.42;99138.41;5028182;28;20120;-77
2023/08/27 07:51:02;;;;;;;4.88;3.80;;;;;;;18.96;67.04;99137.94;5010516;28;20124;-77
2023/08/27 07:53:30;;;;;;;4.15;3.15;;;;;;;19.01;67.05;99129.44;5038668;28;20420;-80
2023/08/27 07:55:58;;;;;;;3.45;3.15;;;;;;;19.07;67.10;99136.88;5028673;28;20096;-78
2023/08/27 07:58:29;;;;;;;4.60;3.30;;;;;;;19.12;66.88;99142.56;5037142;28;20084;-78
2023/08/27 08:00:58;;;;;;;3.60;2.92;;;;;;;19.17;66.40;99138.56;5013374;28;20054;-78
2023/08/27 08:03:36;;;;;;;3.10;2.80;;;;;;;19.20;66.73;99148.91;5030234;28;20045;-79
2023/08/27 08:06:03;;;;;;;3.47;2.78;;;;;;;19.24;67.10;99144.94;5013366;28;20052;-76
2023/08/27 08:08:31;;;;;;;4.68;3.03;;;;;;;19.26;66.20;99159.78;5031413;28;20042;-77
2023/08/27 08:10:59;;;;;;;3.80;3.20;;;;;;;19.25;66.31;99163.44;5030588;28;20466;-77
2023/08/27 08:13:26;;;;;;;3.15;2.67;;;;;;;19.25;66.07;99167.97;5031337;28;20104;-79
2023/08/27 08:16:10;;;;;;;5.72;3.25;;;;;;;19.19;64.93;99168.59;5022884;28;20445;-77
2023/08/27 08:18:48;;;;;;;4.13;2.78;;;;;;;19.18;65.77;99161.59;5008288;28;20053;-78
2023/08/27 08:21:17;;;;;;;3.53;2.20;;;;;;;19.12;65.62;99165.72;5031197;28;20080;-79
2023/08/27 08:23:45;;;;;;;3.05;1.92;;;;;;;19.08;66.00;99175.03;5026494;28;20072;-79
2023/08/27 08:26:19;;;;;;;4.78;2.20;;;;;;;19.01;65.42;99175.63;5042639;28;20561;-80
2023/08/27 08:28:46;;;;;;;4.35;2.45;;;;;;;18.96;65.57;99174.44;5011036;28;20037;-78
2023/08/27 08:31:13;;;;;;;2.33;1.90;;;;;;;18.89;65.96;99156.38;5009662;28;20093;-78
2023/08/27 08:33:40;;;;;;;2.03;1.80;;;;;;;18.84;65.75;99147.19;5015521;28;20050;-78
2023/08/27 08:36:07;;;;;;;1.70;1.60;;;;;;;18.78;66.31;99140.66;5027133;28;20128;-77
2023/08/27 08:38:34;;;;;;;2.38;2.05;;;;;;;18.77;67.21;99146.97;5020669;28;20045;-80
2023/08/27 08:41:02;;;;;;;2.28;2.08;;;;;;;18.77;67.49;99140.81;5016692;28;20481;-78
2023/08/27 08:43:34;;;;;;;2.85;1.98;;;;;;;18.80;68.52;99130.66;5023364;28;20068;-78
2023/08/27 08:46:05;;;;;;;3.67;2.15;;;;;;;18.86;69.08;99135.38;5031109;28;20478;-79
2023/08/27 08:48:38;;;;;;;2.45;2.10;;;;;;;18.94;68.61;99142.56;5027199;28;20053;-78
2023/08/27 08:51:10;;;;;;;3.22;2.45;;;;;;;19.05;68.51;99144.19;5044088;28;20052;-79
2023/08/27 08:56:27;;;;;;;2.90;2.33;;;;;;;19.21;67.57;99139.94;3359405;26;20389;-82
2023/08/27 08:58:57;;;;;;;6.05;2.55;;;;;;;19.29;68.42;99133.78;5045651;28;20073;-81
2023/08/27 09:01:28;;;;;;;4.03;2.50;;;;;;;19.34;68.21;99136.81;5046130;28;20045;-82
2023/08/27 09:03:56;;;;;;;3.75;2.50;;;;;;;19.44;69.09;99134.84;5042754;28;20049;-83
2023/08/27 09:06:23;;;;;;;4.22;2.70;;;;;;;19.52;69.05;99124.19;5032116;28;20041;-83
2023/08/27 09:08:50;;;;;;;3.38;2.40;;;;;;;19.59;68.59;99134.25;5042273;28;20063;-82
2023/08/27 09:11:19;;;;;;;2.40;2.20;;;;;;;19.65;68.24;99134.44;5051787;28;20497;-81
2023/08/27 09:13:46;;;;;;;3.13;2.65;;;;;;;19.70;67.90;99131.25;5051148;28;20124;-82
2023/08/27 09:16:12;;;;;;;2.97;2.72;;;;;;;19.75;67.84;99139.66;5053658;28;20067;-83
2023/08/27 09:18:39;;;;;;;3.22;2.53;;;;;;;19.81;68.59;99139.97;5053587;28;20488;-81
2023/08/27 09:21:06;;;;;;;3.10;2.58;;;;;;;19.87;68.07;99133.97;5041020;28;20458;-82
2023/08/27 09:23:37;;;;;;;2.35;2.15;;;;;;;19.96;68.40;99126.84;5054029;28;20049;-82
2023/08/27 09:26:05;;;;;;;2.67;2.40;;;;;;;20.03;67.81;99127.84;5054082;28;20128;-81
2023/08/27 09:28:35;;;;;;;2.40;2.20;;;;;;;20.08;67.51;99120.22;5035804;28;20421;-82
2023/08/27 09:31:01;;;;;;;2.80;2.42;;;;;;;20.14;67.19;99138.22;5030216;28;20071;-82
2023/08/27 09:33:42;;;;;;;3.47;2.28;;;;;;;20.14;66.48;99129.38;5051566;28;20040;-81
2023/08/27 09:36:09;;;;;;;2.97;2.05;;;;;;;20.23;67.22;99135.56;5048042;28;20053;-81
2023/08/27 09:38:36;;;;;;;2.08;1.88;;;;;;;20.26;66.84;99130.72;5051030;28;20467;-82
2023/08/27 09:41:30;;;;;;;2.53;1.75;;;;;;;20.25;65.69;99134.41;5053343;28;20045;-82
2023/08/27 09:43:57;;;;;;;2.03;1.80;;;;;;;20.35;66.87;99139.59;5046674;28;20049;-87
2023/08/27 09:46:23;;;;;;;1.77;1.60;;;;;;;20.38;67.08;99136.59;5047570;28;20664;-82
2023/08/27 09:49:16;;;;;;;2.70;1.88;;;;;;;20.38;65.16;99133.94;5053005;28;20048;-80
2023/08/27 09:51:43;;;;;;;2.20;1.55;;;;;;;20.47;66.36;99132.06;5049721;28;20495;-82
2023/08/27 09:54:19;;;;;;;2.58;1.60;;;;;;;20.44;64.96;99117.19;5050565;28;20111;-82
2023/08/27 09:56:47;;;;;;;1.83;1.67;;;;;;;20.46;65.68;99117.03;5034939;28;20045;-81
2023/08/27 09:59:16;;;;;;;1.40;1.30;;;;;;;20.46;65.76;99122.38;5053200;28;20465;-82
2023/08/27 10:01:50;;;;;;;2.58;1.50;;;;;;;20.43;65.34;99128.91;5053957;28;20053;-82
2023/08/27 10:04:18;;;;;;;3.00;1.35;;;;;;;20.47;66.04;99120.53;5052804;28;20091;-82
2023/08/27 10:06:45;;;;;;;1.52;1.42;;;;;;;20.50;66.24;99130.91;5053575;28;20041;-82
2023/08/27 10:09:12;;;;;;;1.55;1.40;;;;;;;20.51;65.95;99132.56;5053342;28;20608;-81
2023/08/27 10:11:43;;;;;;;2.50;1.48;;;;;;;20.52;65.48;99123.56;5053593;28;20489;-81
2023/08/27 10:14:10;;;;;;;3.60;1.70;;;;;;;20.54;65.89;99122.38;5053582;28;20051;-80
2023/08/27 10:16:38;;;;;;;1.90;1.70;;;;;;;20.57;66.84;99118.53;5045135;28;20052;-81
2023/08/27 10:19:04;;;;;;;1.77;1.65;;;;;;;20.61;66.41;99121.69;5052550;28;20063;-80
2023/08/27 10:21:32;;;;;;;3.40;2.08;;;;;;;20.63;65.51;99115.19;5051709;28;20041;-80
2023/08/27 10:23:59;;;;;;;3.05;2.30;;;;;;;20.66;65.75;99122.88;5044764;28;20045;-82
2023/08/27 10:26:28;;;;;;;2.35;2.10;;;;;;;20.68;65.74;99110.16;5049345;28;20099;-81
2023/08/27 10:28:55;;;;;;;3.17;2.20;;;;;;;20.72;65.84;99105.31;5035591;28;20128;-79
2023/08/27 10:31:22;;;;;;;2.20;2.00;;;;;;;20.80;66.62;99099.94;5035246;28;20483;-81
2023/08/27 10:33:49;;;;;;;2.22;2.05;;;;;;;20.92;66.79;99091.56;5053222;28;20061;-81
2023/08/27 10:36:24;;;;;;;3.20;1.98;;;;;;;21.05;66.56;99086.50;5050827;28;20049;-81
2023/08/27 10:38:53;;;;;;;2.20;1.90;;;;;;;21.26;67.47;99089.66;5053116;28;20041;-81
2023/08/27 10:41:26;;;;;;;2.33;1.88;;;;;;;21.45;66.63;99083.84;5052662;28;20045;-81
2023/08/27 10:43:53;;;;;;;2.78;1.92;;;;;;;21.69;66.98;99068.66;5052895;28;20404;-82
2023/08/27 10:46:24;;;;;;;2.80;1.95;;;;;;;21.91;65.21;99079.59;5027215;28;20531;-81
2023/08/27 10:48:53;;;;;;;3.15;1.90;;;;;;;22.13;64.83;99074.41;5045456;28;20427;-81
2023/08/27 10:51:26;;;;;;;2.90;1.80;;;;;;;22.31;64.63;99073.25;5034920;28;20045;-81
2023/08/27 10:53:58;;;;;;;2.38;1.75;;;;;;;22.47;63.48;99070.41;5052526;28;20493;-81
2023/08/27 10:56:38;;;;;;;2.50;1.70;;;;;;;22.63;62.95;99066.78;5047463;28;20447;-81
2023/08/27 10:59:11;;;;;;;1.85;1.48;;;;;;;22.85;62.78;99074.09;5047970;28;20046;-81
2023/08/27 11:01:59;;;;;;;2.17;1.58;;;;;;;23.07;64.30;99060.75;5031628;28;20800;-81
2023/08/27 11:04:36;;;;;;;2.45;1.65;;;;;;;23.30;61.34;99064.13;5052164;28;20045;-81
2023/08/27 11:07:17;;;;;;;4.25;1.73;;;;;;;23.56;61.46;99064.69;5034385;28;20497;-81
2023/08/27 11:09:52;;;;;;;3.00;1.40;;;;;;;23.84;61.58;99050.47;5028755;28;20045;-81
2023/08/27 11:12:35;;;;;;;1.95;1.40;;;;;;;24.06;59.25;99054.00;5046203;28;20136;-80
2023/08/27 11:15:15;;;;;;;1.88;1.50;;;;;;;24.24;59.34;99044.66;5047532;28;20064;-82
2023/08/27 11:17:42;;;;;;;1.77;1.20;;;;;;;24.44;60.36;99046.66;5051890;28;20055;-82
2023/08/27 11:20:25;;;;;;;2.55;1.40;;;;;;;24.55;58.38;99045.28;5051908;28;20045;-81
2023/08/27 11:23:00;;;;;;;3.67;1.50;;;;;;;24.82;58.21;99050.84;5032580;28;20041;-80
2023/08/27 11:25:29;;;;;;;1.75;1.45;;;;;;;25.17;60.90;99050.00;5050817;28;20106;-81
2023/08/27 11:28:00;;;;;;;1.88;1.45;;;;;;;25.59;60.69;99050.78;5051501;28;20105;-80
2023/08/27 11:30:28;;;;;;;2.45;1.33;;;;;;;26.05;59.64;99050.25;5034155;28;20049;-81
2023/08/27 11:32:55;;;;;;;2.90;1.50;;;;;;;26.44;57.72;99045.91;5043503;28;20107;-81
2023/08/27 11:35:28;;;;;;;1.33;1.13;;;;;;;26.73;53.85;99053.72;5034272;28;20033;-81
2023/08/27 11:37:55;;;;;;;2.90;1.80;;;;;;;27.00;56.46;99054.53;5051844;28;20080;-80
2023/08/27 11:40:26;;;;;;;1.38;1.25;;;;;;;27.19;55.40;99046.53;5051558;28;20445;-81
2023/08/27 11:42:55;;;;;;;2.42;1.45;;;;;;;27.34;54.53;99042.72;5047048;28;20129;-81